YBHM

Details ICAO YBHM (HTI)
Name Hamilton I.
Region Australia
Timezone Australia/Lindeman (UTC+10.0)
Plans Departing 43
Arriving 86
Stats Elevation 14 ft / 4 m (AMSL)
Location -20.357481° 148.951639°
Runways 1
Magnetic Variation 8.158° E
Sunrise 2017-12-13 19:19:34 UTC / 2017-12-14 05:19:34 Local
Sunset 2017-12-14 08:40:36 UTC / 2017-12-14 18:40:36 Local
Advertisement - Login to hide

Runways

ID Width Length Bearing (true) Bearing (mag) Surface Threshold Offset Overrun Length
14 148 ft / 45 m 5,792 ft / 1,765 m 143.04° 134.88° Asphalt 0 ft / 0 m 0 ft / 0 m
32 148 ft / 45 m 5,792 ft / 1,765 m 323.03° 314.87° Asphalt 0 ft / 0 m 0 ft / 0 m

Map

Weather


0- 5 10 15 20 25 30 35+ Temperature / ° C

Clouds and Precipitation
Forecast for 2017-12-14 06:00 UTC. Updated an hour ago

Ground ~20,000 ft ~40,000 ft Winds

METAR

YBHM 140600Z AUTO 11017KT 9999 // NCD 28/21 Q1008

TAF

Not found

Frequencies

Unicom 126.70 MHz WHITSUNDAY MULT
Tower 118.70 MHz HAMILTON IS TWR
Tower 135.50 MHz BRISBANE CNTR
Warning: Do not use this data for real-world aviation or navigation. No guarantee of current accuracy is given.